Time;durP1;ratioP1;P1;durP2;ratioP2;P2;SDS_P1;SDS_P2;PMS_P1;PMS_P2;Temp;Humidity;BMP_temperature;BMP_pressure;BME280_temperature;BME280_humidity;BME280_pressure;Samples;Min_cycle;Max_cycle;Signal;HPM_P1;HPM_P2
2023/10/05 00:00:27;;;;;;;39.40;24.08;;;20.50;99.80;;;;;;5037501;28;20060;-68
2023/10/05 00:03:21;;;;;;;33.92;23.17;;;20.30;99.90;;;;;;5037594;28;20048;-67
2023/10/05 00:06:25;;;;;;;33.50;23.98;;;20.60;99.90;;;;;;5037710;28;20048;-68
2023/10/05 00:09:29;;;;;;;34.72;24.67;;;20.30;99.90;;;;;;5037829;28;20036;-68
2023/10/05 00:12:34;;;;;;;31.33;23.35;;;20.10;99.90;;;;;;5037216;28;20060;-68
2023/10/05 00:15:38;;;;;;;37.28;23.25;;;23.50;99.90;;;;;;5037688;28;20048;-68
2023/10/05 00:18:42;;;;;;;34.50;23.52;;;20.00;99.90;;;;;;5037520;28;20048;-68
2023/10/05 00:21:51;;;;;;;31.23;23.77;;;19.50;99.90;;;;;;5037261;28;20408;-67
2023/10/05 00:24:56;;;;;;;33.20;22.75;;;19.10;99.90;;;;;;5037313;28;20048;-69
2023/10/05 00:28:04;;;;;;;38.42;23.05;;;20.10;99.90;;;;;;5037513;28;20048;-68
2023/10/05 00:31:08;;;;;;;33.45;22.70;;;20.20;99.90;;;;;;5036599;28;20048;-68
2023/10/05 00:34:17;;;;;;;35.03;23.23;;;20.20;99.90;;;;;;5037112;28;20041;-68
2023/10/05 00:37:22;;;;;;;33.10;22.40;;;20.30;99.90;;;;;;5037360;28;20073;-68
2023/10/05 00:40:35;;;;;;;30.25;21.95;;;20.20;99.90;;;;;;5037283;28;20392;-67
2023/10/05 00:43:39;;;;;;;34.13;21.77;;;20.20;99.90;;;;;;5037011;28;20101;-68
2023/10/05 00:46:48;;;;;;;28.85;22.02;;;20.10;99.90;;;;;;5036910;28;20052;-68
2023/10/05 00:49:59;;;;;;;31.50;22.50;;;20.00;99.90;;;;;;5036454;28;20041;-68
2023/10/05 00:53:07;;;;;;;;;;;21.30;99.90;;;;;;5035466;28;20060;-68
2023/10/05 00:56:15;;;;;;;34.75;22.75;;;20.40;99.90;;;;;;5021893;28;19916;-67
2023/10/05 00:59:20;;;;;;;34.28;22.70;;;20.10;99.90;;;;;;5033876;28;20052;-67
2023/10/05 01:02:26;;;;;;;34.45;21.95;;;20.10;99.90;;;;;;5033909;28;20393;-67
2023/10/05 01:05:36;;;;;;;33.28;22.35;;;20.10;99.90;;;;;;5033926;28;20048;-67
2023/10/05 01:08:54;;;;;;;31.67;23.85;;;19.80;99.90;;;;;;5033467;28;20052;-67
2023/10/05 01:12:43;;;;;;;32.92;23.98;;;18.10;99.90;;;;;;5032223;28;20388;-68
2023/10/05 01:15:33;;;;;;;29.77;22.35;;;;;;;;;;5034978;28;20040;-67
2023/10/05 01:18:36;;;;;;;33.40;22.48;;;20.10;99.90;;;;;;5033381;28;20064;-67
2023/10/05 01:21:43;;;;;;;31.67;22.88;;;19.90;99.90;;;;;;5033340;28;20040;-68
2023/10/05 01:24:48;;;;;;;34.50;24.38;;;19.90;99.90;;;;;;5033529;28;20044;-68
2023/10/05 01:27:52;;;;;;;34.78;22.65;;;19.90;99.90;;;;;;5032433;28;20040;-68
2023/10/05 01:30:56;;;;;;;31.75;23.70;;;19.90;99.90;;;;;;5033368;28;20044;-67
2023/10/05 01:34:01;;;;;;;33.20;22.67;;;20.00;99.90;;;;;;5033443;28;20052;-67
2023/10/05 01:37:05;;;;;;;33.90;22.98;;;;;;;;;;5033157;28;20045;-67
2023/10/05 01:40:30;;;;;;;37.25;23.38;;;19.80;99.90;;;;;;5033065;28;20073;-67
2023/10/05 01:43:34;;;;;;;40.05;22.65;;;;;;;;;;5033568;28;20460;-67
2023/10/05 01:46:38;;;;;;;35.80;22.80;;;19.20;99.90;;;;;;5032905;28;20048;-67
2023/10/05 01:49:44;;;;;;;29.02;21.42;;;;;;;;;;5033123;28;20048;-67
2023/10/05 01:53:06;;;;;;;28.45;22.00;;;;;;;;;;5033010;28;20392;-67
2023/10/05 01:56:17;;;;;;;27.42;21.83;;;19.80;99.90;;;;;;5033036;28;20062;-67
2023/10/05 01:59:22;;;;;;;;;;;19.90;99.90;;;;;;5032304;28;20076;-67
2023/10/05 02:02:26;;;;;;;34.40;22.15;;;;;;;;;;5031661;28;19916;-67
2023/10/05 02:05:30;;;;;;;30.20;21.77;;;19.50;99.90;;;;;;5031727;28;20537;-67
2023/10/05 02:08:36;;;;;;;28.75;21.77;;;;;;;;;;5032753;28;20040;-67
2023/10/05 02:11:41;;;;;;;34.97;22.73;;;;;;;;;;5031498;28;20045;-67
2023/10/05 02:14:46;;;;;;;32.97;23.60;;;19.80;99.90;;;;;;5031507;28;20060;-67
2023/10/05 02:17:52;;;;;;;32.83;22.27;;;;;;;;;;5031816;28;20048;-67
2023/10/05 02:24:18;;;;;;;38.47;23.42;;;20.40;99.90;;;;;;5032479;28;20041;-67
2023/10/05 02:27:26;;;;;;;29.70;22.67;;;18.60;99.90;;;;;;5031508;28;20044;-67
2023/10/05 02:30:31;;;;;;;31.73;22.45;;;18.00;99.90;;;;;;5031992;28;20045;-67
2023/10/05 02:33:38;;;;;;;32.03;21.63;;;19.50;99.90;;;;;;5031302;28;20041;-67
2023/10/05 02:36:43;;;;;;;31.15;22.77;;;19.60;99.90;;;;;;5032268;28;20504;-67
2023/10/05 02:39:48;;;;;;;29.85;21.92;;;19.20;99.90;;;;;;5031857;28;20060;-67
2023/10/05 02:42:54;;;;;;;27.95;21.42;;;;;;;;;;5031790;28;20036;-66
2023/10/05 02:46:09;;;;;;;31.17;21.95;;;;;;;;;;5031010;28;20515;-65
2023/10/05 02:49:15;;;;;;;29.20;21.63;;;19.90;99.90;;;;;;5030936;28;20066;-66
2023/10/05 02:52:20;;;;;;;32.50;21.45;;;;;;;;;;5031303;28;20064;-68
2023/10/05 02:55:32;;;;;;;32.92;22.02;;;;;;;;;;5030982;28;20048;-66
2023/10/05 02:58:35;;;;;;;;;;;19.60;99.90;;;;;;5032558;28;20040;-67
2023/10/05 03:01:39;;;;;;;32.65;22.83;;;;;;;;;;5030609;28;20419;-67
2023/10/05 03:04:45;;;;;;;35.38;23.30;;;19.40;99.90;;;;;;5031739;28;20056;-67
2023/10/05 03:07:53;;;;;;;33.15;22.20;;;20.20;99.90;;;;;;5030415;28;20045;-66
2023/10/05 03:10:59;;;;;;;28.73;21.67;;;;;;;;;;5030561;28;20064;-66
2023/10/05 03:14:05;;;;;;;27.73;20.27;;;19.30;99.90;;;;;;5030759;28;20409;-67
2023/10/05 03:17:14;;;;;;;29.13;20.58;;;;;;;;;;5030159;28;20048;-67
2023/10/05 03:20:21;;;;;;;29.20;20.95;;;;;;;;;;5031115;28;20056;-67
2023/10/05 03:23:26;;;;;;;26.83;20.08;;;;;;;;;;5031352;28;20496;-67
2023/10/05 03:26:30;;;;;;;32.53;20.40;;;19.70;99.90;;;;;;5031445;28;20412;-67
2023/10/05 03:29:35;;;;;;;30.52;21.33;;;19.60;99.90;;;;;;5030649;28;20052;-67
2023/10/05 03:32:43;;;;;;;30.10;21.58;;;20.60;99.90;;;;;;5031323;28;20231;-66
2023/10/05 03:35:47;;;;;;;34.03;22.52;;;;;;;;;;5030241;28;20610;-66
2023/10/05 03:38:55;;;;;;;33.95;23.88;;;;;;;;;;5030122;28;20040;-66
2023/10/05 03:42:02;;;;;;;31.40;24.13;;;;;;;;;;5030189;28;20053;-67
2023/10/05 03:45:10;;;;;;;31.42;24.08;;;19.40;99.90;;;;;;5030337;28;20041;-66
2023/10/05 03:48:14;;;;;;;31.73;23.73;;;;;;;;;;5030337;28;20550;-67
2023/10/05 03:51:19;;;;;;;31.15;23.23;;;;;;;;;;5029979;28;20045;-67
2023/10/05 03:54:26;;;;;;;34.08;24.75;;;19.00;99.90;;;;;;5030077;28;20049;-66
2023/10/05 03:57:31;;;;;;;33.95;24.52;;;19.20;99.90;;;;;;5030346;28;20045;-67
2023/10/05 04:00:37;;;;;;;30.00;23.58;;;;;;;;;;5029750;28;20397;-67
2023/10/05 04:03:46;;;;;;;34.80;23.80;;;19.30;99.90;;;;;;5030046;28;20045;-67
2023/10/05 04:06:51;;;;;;;31.25;22.88;;;;;;;;;;5030791;28;20056;-67
2023/10/05 04:10:01;;;;;;;30.13;22.63;;;;;;;;;;5030955;28;20067;-67
2023/10/05 04:13:06;;;;;;;34.15;22.75;;;;;;;;;;5030230;28;20048;-67
2023/10/05 04:16:18;;;;;;;38.83;23.80;;;19.10;99.90;;;;;;5030841;28;20049;-67
2023/10/05 04:19:22;;;;;;;31.70;22.65;;;;;;;;;;5030940;28;20527;-67
2023/10/05 04:22:26;;;;;;;34.33;23.95;;;19.10;99.90;;;;;;5030781;28;20051;-67
2023/10/05 04:25:31;;;;;;;31.80;24.10;;;;;;;;;;5030593;28;20060;-67
2023/10/05 04:28:35;;;;;;;31.77;24.35;;;19.40;99.90;;;;;;5032341;28;20049;-67
2023/10/05 04:31:39;;;;;;;32.83;23.50;;;;;;;;;;5034151;28;20428;-67
2023/10/05 04:34:44;;;;;;;35.20;25.33;;;;;;;;;;5034582;28;20057;-67
2023/10/05 04:37:49;;;;;;;32.15;24.27;;;;;;;;;;5034321;28;20049;-67
2023/10/05 04:40:54;;;;;;;42.80;31.42;;;;;;;;;;5034002;28;20052;-67
2023/10/05 04:43:59;;;;;;;39.20;26.45;;;;;;;;;;5033865;28;20037;-66
2023/10/05 04:47:04;;;;;;;36.80;24.02;;;19.00;99.90;;;;;;5033912;28;20060;-66
2023/10/05 04:50:15;;;;;;;44.88;25.25;;;;;;;;;;5034231;28;20495;-66
2023/10/05 04:53:20;;;;;;;35.43;23.23;;;;;;;;;;5034017;28;20136;-67
2023/10/05 04:59:59;;;;;;;39.17;23.25;;;19.30;99.90;;;;;;5033838;28;20040;-67
2023/10/05 05:03:17;;;;;;;42.10;24.83;;;;;;;;;;5033741;28;20053;-67
2023/10/05 05:06:21;;;;;;;34.45;23.35;;;;;;;;;;5033457;28;20041;-66
2023/10/05 05:09:29;;;;;;;34.67;22.83;;;19.30;99.90;;;;;;5032611;28;20053;-66
2023/10/05 05:12:35;;;;;;;44.60;24.08;;;;;;;;;;5033339;28;20048;-68
2023/10/05 05:15:38;;;;;;;32.55;22.92;;;19.00;99.90;;;;;;5033494;28;20059;-68
2023/10/05 05:18:43;;;;;;;32.95;22.73;;;19.10;99.90;;;;;;5033461;28;20044;-67
2023/10/05 05:21:48;;;;;;;38.80;23.23;;;19.10;99.90;;;;;;5033576;28;20061;-67
2023/10/05 05:24:53;;;;;;;32.53;23.30;;;;;;;;;;5033532;28;20400;-67
2023/10/05 05:28:01;;;;;;;34.92;23.63;;;19.20;99.90;;;;;;5032936;28;20514;-62
2023/10/05 05:31:16;;;;;;;32.25;21.98;;;19.30;99.90;;;;;;5032875;28;20400;-60
2023/10/05 05:34:20;;;;;;;34.35;23.88;;;;;;;;;;5032887;28;20094;-63
2023/10/05 05:37:30;;;;;;;35.55;23.17;;;;;;;;;;5032874;28;20048;-63
2023/10/05 05:40:36;;;;;;;34.63;22.05;;;;;;;;;;5032385;28;20048;-62
2023/10/05 05:43:40;;;;;;;35.33;21.90;;;;;;;;;;5033070;28;20508;-63
2023/10/05 05:46:45;;;;;;;40.45;21.55;;;;;;;;;;5032609;28;20120;-62
2023/10/05 05:49:50;;;;;;;34.83;20.83;;;21.40;97.70;;;;;;5032990;28;20136;-62
2023/10/05 05:52:56;;;;;;;31.73;20.35;;;22.30;97.20;;;;;;5032714;28;20056;-61
2023/10/05 05:56:03;;;;;;;30.52;18.52;;;23.10;95.80;;;;;;5032396;28;20044;-63
2023/10/05 05:59:08;;;;;;;33.13;20.08;;;23.20;94.90;;;;;;5032531;28;20517;-62
2023/10/05 06:02:11;;;;;;;38.50;20.23;;;23.40;94.50;;;;;;5032417;28;20057;-62
2023/10/05 06:05:16;;;;;;;42.47;20.63;;;23.40;94.60;;;;;;5032559;28;20056;-62
2023/10/05 06:08:20;;;;;;;32.60;19.30;;;23.80;94.10;;;;;;5032340;28;20049;-62
2023/10/05 06:11:24;;;;;;;33.65;18.80;;;24.20;93.50;;;;;;5032152;28;20053;-62
2023/10/05 06:14:31;;;;;;;34.58;18.33;;;24.50;93.10;;;;;;5032352;28;20048;-62
2023/10/05 06:17:36;;;;;;;44.65;20.77;;;24.60;92.70;;;;;;5032209;28;20052;-63
2023/10/05 06:20:40;;;;;;;36.13;19.88;;;24.60;92.70;;;;;;5031784;28;20516;-64
2023/10/05 06:23:44;;;;;;;31.02;20.83;;;24.40;93.20;;;;;;5032178;28;20121;-64
2023/10/05 06:26:49;;;;;;;39.35;22.85;;;24.30;93.30;;;;;;5031981;28;20516;-63
2023/10/05 06:29:53;;;;;;;36.30;24.17;;;24.30;93.60;;;;;;5031746;28;20048;-63
2023/10/05 06:32:58;;;;;;;36.40;24.35;;;24.10;94.10;;;;;;5031963;28;20052;-62
2023/10/05 06:36:03;;;;;;;43.53;24.63;;;24.10;94.30;;;;;;5031899;28;20048;-62
2023/10/05 06:39:06;;;;;;;40.45;24.25;;;23.90;94.50;;;;;;5031374;28;20048;-63
2023/10/05 06:42:12;;;;;;;40.33;24.70;;;23.80;94.70;;;;;;5031224;28;20595;-62
2023/10/05 06:45:23;;;;;;;42.47;26.85;;;23.70;95.00;;;;;;5030839;28;20068;-63
2023/10/05 06:48:27;;;;;;;33.88;23.63;;;23.70;95.20;;;;;;5031867;28;20048;-63
2023/10/05 06:51:31;;;;;;;46.75;26.23;;;23.80;95.70;;;;;;5029905;28;20488;-62
2023/10/05 06:54:36;;;;;;;36.35;22.63;;;24.00;95.00;;;;;;5031664;28;20044;-62
2023/10/05 06:57:45;;;;;;;29.02;22.50;;;24.00;95.40;;;;;;5030786;28;20044;-62
2023/10/05 07:00:48;;;;;;;42.92;26.65;;;24.50;94.90;;;;;;5030920;28;20056;-63
2023/10/05 07:03:53;;;;;;;41.22;25.27;;;24.60;94.60;;;;;;5031685;28;20391;-62
2023/10/05 07:06:57;;;;;;;40.92;23.40;;;24.60;94.90;;;;;;5031328;28;20404;-62
2023/10/05 07:10:08;;;;;;;40.08;25.13;;;24.60;94.90;;;;;;5031172;28;20048;-63
2023/10/05 07:13:19;;;;;;;39.42;26.15;;;24.60;95.20;;;;;;5031057;28;20056;-62
2023/10/05 07:16:23;;;;;;;33.90;22.13;;;24.60;94.70;;;;;;5031056;28;20048;-62
2023/10/05 07:19:27;;;;;;;30.50;23.20;;;24.70;94.80;;;;;;5031224;28;20052;-63
2023/10/05 07:22:31;;;;;;;30.73;22.83;;;24.80;94.70;;;;;;5031412;28;20069;-63
2023/10/05 07:25:36;;;;;;;36.00;23.75;;;24.80;95.00;;;;;;5030837;28;20400;-63
2023/10/05 07:28:43;;;;;;;39.83;23.05;;;25.00;94.80;;;;;;5031255;28;20388;-62
2023/10/05 07:31:47;;;;;;;42.70;20.05;;;24.70;94.70;;;;;;5030773;28;20045;-63
2023/10/05 07:34:51;;;;;;;26.17;19.15;;;25.20;94.90;;;;;;5030879;28;20037;-62
2023/10/05 07:37:55;;;;;;;32.35;20.92;;;25.40;94.60;;;;;;5030798;28;20048;-64
2023/10/05 07:41:02;;;;;;;36.70;21.33;;;25.70;94.00;;;;;;5030582;28;20404;-64
2023/10/05 07:44:07;;;;;;;34.83;22.65;;;25.60;94.10;;;;;;5030721;28;20087;-65
2023/10/05 07:47:15;;;;;;;22.48;16.98;;;25.90;93.60;;;;;;5030884;28;20056;-62
2023/10/05 07:50:18;;;;;;;20.70;16.40;;;26.20;93.40;;;;;;5030742;28;20040;-63
2023/10/05 07:53:22;;;;;;;33.15;19.42;;;26.10;93.60;;;;;;5029827;28;20036;-63
2023/10/05 07:56:32;;;;;;;26.75;20.15;;;26.20;93.40;;;;;;5029953;28;20037;-63
2023/10/05 07:59:39;;;;;;;20.35;14.68;;;26.20;93.30;;;;;;5029958;28;20056;-64
2023/10/05 08:02:42;;;;;;;32.35;20.38;;;26.20;93.40;;;;;;5033049;28;20044;-63
2023/10/05 08:05:48;;;;;;;23.98;16.08;;;25.80;92.90;;;;;;5034695;28;20049;-63
2023/10/05 08:08:53;;;;;;;28.67;19.25;;;26.30;93.40;;;;;;5034956;28;20049;-64
2023/10/05 08:11:57;;;;;;;30.20;19.88;;;26.20;93.20;;;;;;5034504;28;20048;-61
2023/10/05 08:15:01;;;;;;;34.78;20.33;;;26.10;93.40;;;;;;5035051;28;20072;-63
2023/10/05 08:18:09;;;;;;;32.22;22.17;;;27.00;93.80;;;;;;5034126;28;20048;-64
2023/10/05 08:21:14;;;;;;;29.75;18.55;;;26.20;93.20;;;;;;5034303;28;20056;-64
2023/10/05 08:24:18;;;;;;;20.05;13.57;;;26.20;92.90;;;;;;5034410;28;20045;-63
2023/10/05 08:27:22;;;;;;;19.33;12.85;;;26.40;93.20;;;;;;5034550;28;20068;-63
2023/10/05 08:30:33;;;;;;;19.85;12.82;;;26.60;92.70;;;;;;5034190;28;20049;-63
2023/10/05 08:33:37;;;;;;;13.00;8.77;;;26.70;93.00;;;;;;5033749;28;20045;-63
2023/10/05 08:36:41;;;;;;;10.30;7.93;;;26.70;92.40;;;;;;5034574;28;20044;-64
2023/10/05 08:39:46;;;;;;;12.60;9.13;;;27.00;92.50;;;;;;5034042;28;20502;-63
2023/10/05 08:42:51;;;;;;;17.05;9.77;;;27.00;92.20;;;;;;5034828;28;20178;-63
2023/10/05 08:46:01;;;;;;;11.88;8.65;;;27.00;91.60;;;;;;5034145;28;20037;-63
2023/10/05 08:49:07;;;;;;;11.15;8.35;;;27.00;91.80;;;;;;5034182;28;20049;-64
2023/10/05 08:52:19;;;;;;;10.95;7.75;;;27.10;92.00;;;;;;5034261;28;20613;-63
2023/10/05 08:55:25;;;;;;;11.88;8.70;;;27.20;92.00;;;;;;5034092;28;20060;-64
2023/10/05 08:58:29;;;;;;;12.88;7.85;;;27.30;91.20;;;;;;5033174;28;20088;-63
2023/10/05 09:01:34;;;;;;;17.60;9.52;;;27.20;91.20;;;;;;5034271;28;20052;-63
2023/10/05 09:04:44;;;;;;;10.73;7.80;;;27.20;91.50;;;;;;5033598;28;20045;-63
2023/10/05 09:07:55;;;;;;;12.80;8.90;;;27.10;91.50;;;;;;5022059;28;20053;-63
2023/10/05 09:10:59;;;;;;;13.30;7.75;;;27.30;91.30;;;;;;5032618;28;20527;-62
2023/10/05 09:14:23;;;;;;;14.50;7.57;;;27.30;91.00;;;;;;5032935;28;20535;-63
2023/10/05 09:17:27;;;;;;;17.25;8.32;;;26.90;90.20;;;;;;5033572;28;20499;-62
2023/10/05 09:20:37;;;;;;;10.18;6.97;;;27.40;90.60;;;;;;5033134;28;20056;-62
2023/10/05 09:23:42;;;;;;;8.65;7.00;;;27.50;90.60;;;;;;5033489;28;20037;-63
2023/10/05 09:26:57;;;;;;;9.05;7.47;;;27.60;90.30;;;;;;5033069;28;20044;-63
2023/10/05 09:30:09;;;;;;;11.52;7.93;;;27.70;90.40;;;;;;5032224;28;20040;-63
2023/10/05 09:33:18;;;;;;;11.45;8.30;;;27.80;90.40;;;;;;5032969;28;20048;-63
2023/10/05 09:36:24;;;;;;;9.77;8.25;;;28.00;90.00;;;;;;5033215;28;20041;-63
2023/10/05 09:39:28;;;;;;;9.10;6.65;;;28.00;90.30;;;;;;5032943;28;20048;-63
2023/10/05 09:42:36;;;;;;;11.68;8.10;;;28.10;90.20;;;;;;5033216;28;20062;-63
2023/10/05 09:45:43;;;;;;;9.10;7.65;;;28.20;88.30;;;;;;5033105;28;20048;-64
2023/10/05 09:48:47;;;;;;;10.68;8.32;;;28.20;88.80;;;;;;5033136;28;20503;-63
2023/10/05 09:51:51;;;;;;;11.73;7.10;;;28.20;87.40;;;;;;5032640;28;20045;-64
2023/10/05 09:54:56;;;;;;;12.88;7.93;;;28.30;88.00;;;;;;5032760;28;20052;-63
2023/10/05 09:58:12;;;;;;;11.00;7.85;;;28.40;87.60;;;;;;5032691;28;20045;-64
2023/10/05 10:01:22;;;;;;;13.10;8.27;;;27.90;86.80;;;;;;5032112;28;20053;-63
2023/10/05 10:04:38;;;;;;;14.30;8.18;;;28.50;87.10;;;;;;5032558;28;20500;-64
2023/10/05 10:07:49;;;;;;;8.93;7.10;;;28.70;86.50;;;;;;5032566;28;20393;-62
2023/10/05 10:11:06;;;;;;;7.57;6.00;;;28.80;86.50;;;;;;5032465;28;20048;-64
2023/10/05 10:14:20;;;;;;;8.57;6.63;;;28.80;85.50;;;;;;5032074;28;20040;-64
2023/10/05 10:17:30;;;;;;;10.93;7.22;;;28.90;84.70;;;;;;5032339;28;20057;-63
2023/10/05 10:20:37;;;;;;;14.68;7.22;;;28.90;82.60;;;;;;5032136;28;20522;-63
2023/10/05 10:23:59;;;;;;;12.93;7.00;;;28.90;82.70;;;;;;5031484;28;20044;-64
2023/10/05 10:27:08;;;;;;;12.05;7.32;;;28.90;83.40;;;;;;5031404;28;20400;-63
2023/10/05 10:30:17;;;;;;;13.63;8.73;;;28.90;83.00;;;;;;5031910;28;20049;-64
2023/10/05 10:33:30;;;;;;;11.35;7.20;;;28.90;81.10;;;;;;5031973;28;20052;-63
2023/10/05 10:36:55;;;;;;;8.80;7.53;;;28.90;81.80;;;;;;5031917;28;20045;-63
2023/10/05 10:40:25;;;;;;;19.45;8.80;;;28.90;81.90;;;;;;5031665;28;20064;-66
2023/10/05 10:43:30;;;;;;;13.00;8.10;;;28.80;82.30;;;;;;5031806;28;20052;-62
2023/10/05 10:46:34;;;;;;;11.82;8.50;;;28.30;81.70;;;;;;5031747;28;20506;-64
2023/10/05 10:49:40;;;;;;;18.85;9.48;;;28.80;82.70;;;;;;5031605;28;20056;-63
2023/10/05 10:52:44;;;;;;;14.75;8.48;;;28.70;83.10;;;;;;5030807;28;20060;-63
2023/10/05 10:56:03;;;;;;;13.65;8.40;;;28.70;83.40;;;;;;5031777;28;20052;-63
2023/10/05 10:59:11;;;;;;;10.75;8.52;;;28.70;82.10;;;;;;5031369;28;20044;-63
2023/10/05 11:02:19;;;;;;;9.93;8.45;;;28.70;82.70;;;;;;5030696;28;20068;-65
2023/10/05 11:05:54;;;;;;;11.38;8.50;;;28.70;83.40;;;;;;5031575;28;20044;-63
2023/10/05 11:08:59;;;;;;;20.52;10.02;;;28.50;82.40;;;;;;5031469;28;20052;-62
2023/10/05 11:12:15;;;;;;;13.70;9.65;;;28.80;83.10;;;;;;5031407;28;20048;-64
2023/10/05 11:15:30;;;;;;;12.38;8.25;;;28.40;81.50;;;;;;5031479;28;20049;-62
2023/10/05 11:19:00;;;;;;;16.85;8.07;;;27.90;81.00;;;;;;5031097;28;20231;-63
2023/10/05 11:22:07;;;;;;;12.00;8.50;;;28.40;82.00;;;;;;5031332;28;20052;-62
2023/10/05 11:25:14;;;;;;;15.57;9.77;;;28.30;81.70;;;;;;5031415;28;20519;-62
2023/10/05 11:28:25;;;;;;;13.07;9.30;;;28.40;80.40;;;;;;5031004;28;20044;-63
2023/10/05 11:31:34;;;;;;;18.33;11.57;;;28.20;80.90;;;;;;5030971;28;20052;-63
2023/10/05 11:34:42;;;;;;;14.48;9.30;;;28.00;81.30;;;;;;5030188;28;20040;-63
2023/10/05 11:37:58;;;;;;;14.00;8.88;;;28.10;82.00;;;;;;5030752;28;20052;-64
2023/10/05 11:41:08;;;;;;;20.73;11.00;;;28.10;82.20;;;;;;5029995;28;20172;-62
2023/10/05 11:44:23;;;;;;;13.63;9.05;;;28.10;82.80;;;;;;5030784;28;20393;-63
2023/10/05 11:47:35;;;;;;;16.05;10.93;;;28.20;86.50;;;;;;5031172;28;20048;-63
2023/10/05 11:50:52;;;;;;;13.20;9.75;;;28.20;87.20;;;;;;5030898;28;20041;-63
2023/10/05 11:53:56;;;;;;;19.42;12.23;;;28.20;88.10;;;;;;5031055;28;20040;-63
2023/10/05 11:57:00;;;;;;;15.80;10.80;;;28.30;88.00;;;;;;5030926;28;20057;-63
2023/10/05 12:00:06;;;;;;;18.83;12.68;;;28.30;88.10;;;;;;5031048;28;20539;-62
2023/10/05 12:03:12;;;;;;;14.10;11.02;;;28.30;88.10;;;;;;5030222;28;20109;-63
2023/10/05 12:06:23;;;;;;;24.20;13.35;;;28.30;89.00;;;;;;5030092;28;20039;-63
2023/10/05 12:09:36;;;;;;;18.23;11.30;;;28.20;88.90;;;;;;5030730;28;20117;-65
2023/10/05 12:12:50;;;;;;;15.10;10.05;;;28.20;89.30;;;;;;5030654;28;20413;-63
2023/10/05 12:15:54;;;;;;;24.63;12.50;;;28.20;89.70;;;;;;5030587;28;20049;-64
2023/10/05 12:19:13;;;;;;;19.60;11.63;;;28.90;90.10;;;;;;5030668;28;20044;-63
2023/10/05 12:22:17;;;;;;;13.57;11.32;;;28.10;89.70;;;;;;5030972;28;20060;-63
2023/10/05 12:25:24;;;;;;;17.15;11.35;;;28.10;90.00;;;;;;5030729;28;20041;-64
2023/10/05 12:28:28;;;;;;;15.57;10.43;;;28.00;90.30;;;;;;5030515;28;20069;-63
2023/10/05 12:31:33;;;;;;;16.92;10.70;;;28.00;90.40;;;;;;5030225;28;20512;-63
2023/10/05 12:34:38;;;;;;;19.38;13.18;;;28.00;90.60;;;;;;5029851;28;20401;-63
2023/10/05 12:37:46;;;;;;;17.77;11.07;;;27.90;90.50;;;;;;5030099;28;20397;-62
2023/10/05 12:40:50;;;;;;;18.63;12.35;;;27.90;90.50;;;;;;5030389;28;20045;-63
2023/10/05 12:43:55;;;;;;;18.98;12.10;;;27.80;90.50;;;;;;5030500;28;20048;-63
2023/10/05 12:46:59;;;;;;;15.50;12.60;;;27.80;90.50;;;;;;5028950;28;20041;-64
2023/10/05 12:50:04;;;;;;;19.92;12.55;;;27.90;90.90;;;;;;5033038;28;20515;-63
2023/10/05 12:53:08;;;;;;;15.13;12.85;;;27.80;90.90;;;;;;5034110;28;20044;-66
2023/10/05 12:56:12;;;;;;;17.33;11.38;;;27.80;91.20;;;;;;5033933;28;20086;-65
2023/10/05 12:59:19;;;;;;;21.42;11.32;;;27.70;91.30;;;;;;5033829;28;20053;-65
2023/10/05 13:02:23;;;;;;;15.27;10.77;;;27.60;91.30;;;;;;5033876;28;20048;-64
2023/10/05 13:05:29;;;;;;;20.42;12.35;;;27.70;91.60;;;;;;5033774;28;20052;-63
2023/10/05 13:08:33;;;;;;;16.08;12.38;;;27.70;91.60;;;;;;5033829;28;20044;-64
2023/10/05 13:11:38;;;;;;;15.27;11.13;;;27.60;91.70;;;;;;5033464;28;20495;-65
2023/10/05 13:14:42;;;;;;;15.48;11.63;;;27.70;91.90;;;;;;5033735;28;20076;-63
2023/10/05 13:17:47;;;;;;;13.07;10.57;;;27.40;91.60;;;;;;5033700;28;20060;-63
2023/10/05 13:20:53;;;;;;;26.98;14.25;;;27.60;91.80;;;;;;5033269;28;20056;-64
2023/10/05 13:23:57;;;;;;;18.25;12.75;;;27.60;92.00;;;;;;5032421;28;20048;-64
2023/10/05 13:27:02;;;;;;;16.27;12.77;;;27.60;92.00;;;;;;5032701;28;20412;-63
2023/10/05 13:30:08;;;;;;;15.77;11.48;;;27.20;91.80;;;;;;5033495;28;20511;-66
2023/10/05 13:33:15;;;;;;;20.15;12.13;;;27.50;92.10;;;;;;5033386;28;20057;-64
2023/10/05 13:36:19;;;;;;;20.02;12.30;;;27.50;92.20;;;;;;5033506;28;20064;-64
2023/10/05 13:39:26;;;;;;;23.25;12.68;;;27.40;92.00;;;;;;5033389;28;20067;-63
2023/10/05 13:42:34;;;;;;;14.48;11.73;;;27.40;92.10;;;;;;5033352;28;20595;-62
2023/10/05 13:45:44;;;;;;;12.90;11.13;;;27.40;92.30;;;;;;5032973;28;20064;-63
2023/10/05 13:48:53;;;;;;;15.93;12.27;;;27.40;92.50;;;;;;5033065;28;20056;-63
2023/10/05 13:51:59;;;;;;;14.48;11.80;;;26.10;92.20;;;;;;5032736;28;20040;-62
2023/10/05 13:55:04;;;;;;;17.10;12.55;;;27.20;92.60;;;;;;5032769;28;20392;-62
2023/10/05 13:58:14;;;;;;;14.13;11.10;;;27.70;93.00;;;;;;5032825;28;20052;-65
2023/10/05 14:01:23;;;;;;;19.60;12.93;;;27.20;92.70;;;;;;5032402;28;20060;-64
2023/10/05 14:04:30;;;;;;;18.52;12.00;;;27.20;93.00;;;;;;5033118;28;20044;-64
2023/10/05 14:07:34;;;;;;;20.92;12.85;;;27.10;92.80;;;;;;5031581;28;20044;-64
2023/10/05 14:10:38;;;;;;;17.85;11.40;;;27.10;93.10;;;;;;5032277;28;20049;-65
2023/10/05 14:13:43;;;;;;;14.40;11.85;;;27.00;93.20;;;;;;5032291;28;20508;-63
2023/10/05 14:17:06;;;;;;;13.65;11.07;;;27.00;92.90;;;;;;5032498;28;20060;-63
2023/10/05 14:20:13;;;;;;;13.77;10.73;;;27.00;92.90;;;;;;5032103;28;20039;-64
2023/10/05 14:23:20;;;;;;;19.55;11.15;;;27.00;93.10;;;;;;5032367;28;20064;-63
2023/10/05 14:26:28;;;;;;;17.13;12.32;;;27.00;93.10;;;;;;5032331;28;20041;-64
2023/10/05 14:29:34;;;;;;;14.88;12.43;;;27.00;93.00;;;;;;5031880;28;20045;-63
2023/10/05 14:32:38;;;;;;;15.13;11.02;;;26.90;93.00;;;;;;5032114;28;20036;-63
2023/10/05 14:35:46;;;;;;;26.35;13.27;;;27.00;93.20;;;;;;5032268;28;20392;-65
2023/10/05 14:38:50;;;;;;;17.17;11.88;;;26.90;93.20;;;;;;5032283;28;20491;-63
2023/10/05 14:41:55;;;;;;;23.63;11.82;;;26.80;93.30;;;;;;5031956;28;20400;-64
2023/10/05 14:44:59;;;;;;;22.73;11.88;;;26.80;93.30;;;;;;5031860;28;20496;-65
2023/10/05 14:48:07;;;;;;;12.93;10.63;;;26.80;93.50;;;;;;5031198;28;20048;-66
2023/10/05 14:51:15;;;;;;;14.50;11.15;;;26.70;93.30;;;;;;5031614;28;20040;-68
2023/10/05 14:54:21;;;;;;;17.80;11.27;;;26.80;93.50;;;;;;5031792;28;20044;-62
2023/10/05 14:57:29;;;;;;;28.50;13.32;;;26.70;93.20;;;;;;5031864;28;20060;-64
2023/10/05 15:00:35;;;;;;;17.35;11.48;;;26.70;93.50;;;;;;5031695;28;20067;-63
2023/10/05 15:03:41;;;;;;;17.58;11.30;;;26.70;93.50;;;;;;5031644;28;20056;-63
2023/10/05 15:06:45;;;;;;;16.95;10.80;;;26.70;93.30;;;;;;5031458;28;20427;-63
2023/10/05 15:09:49;;;;;;;15.05;10.65;;;26.60;93.50;;;;;;5031348;28;20068;-63
2023/10/05 15:12:53;;;;;;;13.90;9.98;;;26.60;93.60;;;;;;5030424;28;20547;-64
2023/10/05 15:15:57;;;;;;;23.10;11.57;;;26.60;93.50;;;;;;5031635;28;20048;-63
2023/10/05 15:19:01;;;;;;;22.55;10.90;;;26.50;93.70;;;;;;5031318;28;20053;-63
2023/10/05 15:22:08;;;;;;;15.10;10.30;;;27.00;93.80;;;;;;5031233;28;20056;-63
2023/10/05 15:25:15;;;;;;;14.82;10.00;;;26.50;93.70;;;;;;5031833;28;20048;-63
2023/10/05 15:28:21;;;;;;;13.77;9.57;;;26.40;93.70;;;;;;5031220;28;20044;-64
2023/10/05 15:31:25;;;;;;;18.25;10.32;;;26.20;93.50;;;;;;5031128;28;20048;-63
2023/10/05 15:34:29;;;;;;;12.20;8.77;;;26.40;93.60;;;;;;5030437;28;20049;-62
2023/10/05 15:37:33;;;;;;;17.95;9.82;;;26.30;93.90;;;;;;5030428;28;20048;-62
2023/10/05 15:40:37;;;;;;;13.80;9.45;;;26.30;94.00;;;;;;5029872;28;20041;-63
2023/10/05 15:43:41;;;;;;;20.13;9.65;;;26.30;94.00;;;;;;5031024;28;20044;-64
2023/10/05 15:46:45;;;;;;;15.82;9.85;;;26.30;93.90;;;;;;5030750;28;20484;-63
2023/10/05 15:49:49;;;;;;;19.35;8.77;;;26.20;93.60;;;;;;5030528;28;20036;-63
2023/10/05 15:52:59;;;;;;;15.85;9.13;;;;;;;;;;5030808;28;20068;-63
2023/10/05 15:56:08;;;;;;;15.50;9.93;;;26.20;93.70;;;;;;5029805;28;20105;-63
2023/10/05 15:59:11;;;;;;;16.58;9.73;;;26.20;94.00;;;;;;5030464;28;20041;-62
2023/10/05 16:02:15;;;;;;;17.92;10.65;;;26.10;93.80;;;;;;5030488;28;20068;-63
2023/10/05 16:05:20;;;;;;;20.65;12.55;;;26.10;94.00;;;;;;5030752;28;20053;-64
2023/10/05 16:08:24;;;;;;;17.77;10.05;;;26.10;94.00;;;;;;5030399;28;20048;-62
2023/10/05 16:11:27;;;;;;;14.93;9.18;;;26.00;94.00;;;;;;5030370;28;20072;-63
2023/10/05 16:14:32;;;;;;;15.98;9.80;;;25.90;94.00;;;;;;5030900;28;20064;-65
2023/10/05 16:17:37;;;;;;;14.93;8.40;;;25.90;94.10;;;;;;5030394;28;20052;-63